sensor_id;sensor_type;location;lat;lon;timestamp;P1;durP1;ratioP1;P2;durP2;ratioP2
57191;SDS011;43052;52.588;13.396;2023-07-30T00:01:24;17.17;;;15.02;;
57191;SDS011;43052;52.588;13.396;2023-07-30T00:03:50;17.23;;;15.10;;
57191;SDS011;43052;52.588;13.396;2023-07-30T00:06:15;18.77;;;14.60;;
57191;SDS011;43052;52.588;13.396;2023-07-30T00:08:40;16.42;;;14.73;;
57191;SDS011;43052;52.588;13.396;2023-07-30T00:11:05;16.63;;;14.25;;
57191;SDS011;43052;52.588;13.396;2023-07-30T00:13:31;17.08;;;14.75;;
57191;SDS011;43052;52.588;13.396;2023-07-30T00:15:56;18.23;;;14.68;;
57191;SDS011;43052;52.588;13.396;2023-07-30T00:18:21;18.17;;;15.18;;
57191;SDS011;43052;52.588;13.396;2023-07-30T00:20:46;17.90;;;15.02;;
57191;SDS011;43052;52.588;13.396;2023-07-30T00:23:12;18.10;;;15.10;;
57191;SDS011;43052;52.588;13.396;2023-07-30T00:25:37;16.45;;;14.75;;
57191;SDS011;43052;52.588;13.396;2023-07-30T00:28:02;17.23;;;15.43;;
57191;SDS011;43052;52.588;13.396;2023-07-30T00:30:28;19.98;;;15.13;;
57191;SDS011;43052;52.588;13.396;2023-07-30T00:32:53;16.48;;;14.70;;
57191;SDS011;43052;52.588;13.396;2023-07-30T00:35:18;15.57;;;13.93;;
57191;SDS011;43052;52.588;13.396;2023-07-30T00:37:44;17.60;;;14.32;;
57191;SDS011;43052;52.588;13.396;2023-07-30T00:40:10;17.02;;;14.00;;
57191;SDS011;43052;52.588;13.396;2023-07-30T00:42:36;17.90;;;14.40;;
57191;SDS011;43052;52.588;13.396;2023-07-30T00:45:01;15.38;;;13.77;;
57191;SDS011;43052;52.588;13.396;2023-07-30T00:47:28;14.88;;;13.13;;
57191;SDS011;43052;52.588;13.396;2023-07-30T00:49:53;16.23;;;13.90;;
57191;SDS011;43052;52.588;13.396;2023-07-30T00:52:19;14.05;;;12.63;;
57191;SDS011;43052;52.588;13.396;2023-07-30T00:54:45;14.32;;;12.85;;
57191;SDS011;43052;52.588;13.396;2023-07-30T00:57:13;13.98;;;12.40;;
57191;SDS011;43052;52.588;13.396;2023-07-30T00:59:38;15.52;;;13.48;;
57191;SDS011;43052;52.588;13.396;2023-07-30T01:02:03;15.60;;;13.45;;
57191;SDS011;43052;52.588;13.396;2023-07-30T01:04:29;14.85;;;13.35;;
57191;SDS011;43052;52.588;13.396;2023-07-30T01:06:55;17.70;;;14.00;;
57191;SDS011;43052;52.588;13.396;2023-07-30T01:09:20;16.08;;;14.48;;
57191;SDS011;43052;52.588;13.396;2023-07-30T01:11:46;15.45;;;13.70;;
57191;SDS011;43052;52.588;13.396;2023-07-30T01:14:11;16.58;;;14.77;;
57191;SDS011;43052;52.588;13.396;2023-07-30T01:16:39;16.48;;;14.32;;
57191;SDS011;43052;52.588;13.396;2023-07-30T01:19:05;15.13;;;13.52;;
57191;SDS011;43052;52.588;13.396;2023-07-30T01:21:34;16.25;;;14.57;;
57191;SDS011;43052;52.588;13.396;2023-07-30T01:24:00;16.15;;;14.45;;
57191;SDS011;43052;52.588;13.396;2023-07-30T01:26:27;16.25;;;14.20;;
57191;SDS011;43052;52.588;13.396;2023-07-30T01:29:00;16.70;;;15.13;;
57191;SDS011;43052;52.588;13.396;2023-07-30T01:31:29;16.23;;;14.50;;
57191;SDS011;43052;52.588;13.396;2023-07-30T01:33:56;17.73;;;14.25;;
57191;SDS011;43052;52.588;13.396;2023-07-30T01:36:24;17.38;;;14.90;;
57191;SDS011;43052;52.588;13.396;2023-07-30T01:38:49;16.15;;;14.15;;
57191;SDS011;43052;52.588;13.396;2023-07-30T01:41:15;16.80;;;15.15;;
57191;SDS011;43052;52.588;13.396;2023-07-30T01:43:41;17.88;;;15.15;;
57191;SDS011;43052;52.588;13.396;2023-07-30T01:46:06;17.63;;;15.70;;
57191;SDS011;43052;52.588;13.396;2023-07-30T01:48:31;17.17;;;15.35;;
57191;SDS011;43052;52.588;13.396;2023-07-30T01:50:57;19.02;;;15.25;;
57191;SDS011;43052;52.588;13.396;2023-07-30T01:53:22;19.38;;;15.75;;
57191;SDS011;43052;52.588;13.396;2023-07-30T01:55:47;16.35;;;14.57;;
57191;SDS011;43052;52.588;13.396;2023-07-30T01:58:13;17.08;;;15.38;;
57191;SDS011;43052;52.588;13.396;2023-07-30T02:00:38;18.20;;;15.55;;
57191;SDS011;43052;52.588;13.396;2023-07-30T02:03:04;15.35;;;13.73;;
57191;SDS011;43052;52.588;13.396;2023-07-30T02:05:29;17.92;;;15.10;;
57191;SDS011;43052;52.588;13.396;2023-07-30T02:07:55;16.17;;;14.48;;
57191;SDS011;43052;52.588;13.396;2023-07-30T02:10:20;16.35;;;14.75;;
57191;SDS011;43052;52.588;13.396;2023-07-30T02:12:45;15.65;;;14.02;;
57191;SDS011;43052;52.588;13.396;2023-07-30T02:15:10;15.88;;;14.20;;
57191;SDS011;43052;52.588;13.396;2023-07-30T02:17:36;16.60;;;14.32;;
57191;SDS011;43052;52.588;13.396;2023-07-30T02:20:01;17.45;;;15.65;;
57191;SDS011;43052;52.588;13.396;2023-07-30T02:22:26;17.95;;;15.50;;
57191;SDS011;43052;52.588;13.396;2023-07-30T02:24:51;16.55;;;14.95;;
57191;SDS011;43052;52.588;13.396;2023-07-30T02:27:16;16.85;;;15.10;;
57191;SDS011;43052;52.588;13.396;2023-07-30T02:29:42;17.10;;;15.30;;
57191;SDS011;43052;52.588;13.396;2023-07-30T02:32:07;16.58;;;14.75;;
57191;SDS011;43052;52.588;13.396;2023-07-30T02:34:34;16.75;;;15.15;;
57191;SDS011;43052;52.588;13.396;2023-07-30T02:36:59;15.55;;;13.95;;
57191;SDS011;43052;52.588;13.396;2023-07-30T02:39:24;16.98;;;15.20;;
57191;SDS011;43052;52.588;13.396;2023-07-30T02:41:49;16.27;;;14.68;;
57191;SDS011;43052;52.588;13.396;2023-07-30T02:44:15;17.73;;;15.48;;
57191;SDS011;43052;52.588;13.396;2023-07-30T02:46:40;17.27;;;15.48;;
57191;SDS011;43052;52.588;13.396;2023-07-30T02:49:05;16.92;;;14.88;;
57191;SDS011;43052;52.588;13.396;2023-07-30T02:51:31;16.35;;;14.65;;
57191;SDS011;43052;52.588;13.396;2023-07-30T02:54:00;16.98;;;14.85;;
57191;SDS011;43052;52.588;13.396;2023-07-30T02:56:29;17.40;;;15.55;;
57191;SDS011;43052;52.588;13.396;2023-07-30T02:58:54;16.90;;;15.10;;
57191;SDS011;43052;52.588;13.396;2023-07-30T03:01:19;15.52;;;13.98;;
57191;SDS011;43052;52.588;13.396;2023-07-30T03:03:45;17.20;;;15.38;;
57191;SDS011;43052;52.588;13.396;2023-07-30T03:06:10;17.10;;;14.82;;
57191;SDS011;43052;52.588;13.396;2023-07-30T03:08:35;17.83;;;15.95;;
57191;SDS011;43052;52.588;13.396;2023-07-30T03:11:01;16.90;;;15.10;;
57191;SDS011;43052;52.588;13.396;2023-07-30T03:13:26;17.10;;;15.40;;
57191;SDS011;43052;52.588;13.396;2023-07-30T03:15:51;18.20;;;15.98;;
57191;SDS011;43052;52.588;13.396;2023-07-30T03:18:17;17.98;;;16.17;;
57191;SDS011;43052;52.588;13.396;2023-07-30T03:20:42;17.02;;;15.07;;
57191;SDS011;43052;52.588;13.396;2023-07-30T03:23:07;16.92;;;15.05;;
57191;SDS011;43052;52.588;13.396;2023-07-30T03:25:33;15.90;;;14.30;;
57191;SDS011;43052;52.588;13.396;2023-07-30T03:27:58;18.33;;;14.98;;
57191;SDS011;43052;52.588;13.396;2023-07-30T03:30:23;16.55;;;14.82;;
57191;SDS011;43052;52.588;13.396;2023-07-30T03:32:48;15.57;;;14.10;;
57191;SDS011;43052;52.588;13.396;2023-07-30T03:35:14;15.35;;;13.43;;
57191;SDS011;43052;52.588;13.396;2023-07-30T03:37:39;15.68;;;14.05;;
57191;SDS011;43052;52.588;13.396;2023-07-30T03:40:04;15.45;;;13.90;;
57191;SDS011;43052;52.588;13.396;2023-07-30T03:42:30;15.68;;;14.07;;
57191;SDS011;43052;52.588;13.396;2023-07-30T03:44:55;15.13;;;13.63;;
57191;SDS011;43052;52.588;13.396;2023-07-30T03:47:20;15.30;;;13.70;;
57191;SDS011;43052;52.588;13.396;2023-07-30T03:49:45;15.38;;;13.75;;
57191;SDS011;43052;52.588;13.396;2023-07-30T03:52:11;16.00;;;14.48;;
57191;SDS011;43052;52.588;13.396;2023-07-30T03:54:36;15.00;;;13.60;;
57191;SDS011;43052;52.588;13.396;2023-07-30T03:57:01;15.43;;;13.77;;
57191;SDS011;43052;52.588;13.396;2023-07-30T03:59:27;14.68;;;13.20;;
57191;SDS011;43052;52.588;13.396;2023-07-30T04:01:53;14.90;;;13.40;;
57191;SDS011;43052;52.588;13.396;2023-07-30T04:04:18;13.80;;;12.50;;
57191;SDS011;43052;52.588;13.396;2023-07-30T04:06:44;13.10;;;11.88;;
57191;SDS011;43052;52.588;13.396;2023-07-30T04:09:09;13.45;;;12.25;;
57191;SDS011;43052;52.588;13.396;2023-07-30T04:11:34;14.25;;;12.80;;
57191;SDS011;43052;52.588;13.396;2023-07-30T04:13:59;14.00;;;12.57;;
57191;SDS011;43052;52.588;13.396;2023-07-30T04:16:25;13.80;;;12.18;;
57191;SDS011;43052;52.588;13.396;2023-07-30T04:18:50;15.75;;;14.18;;
57191;SDS011;43052;52.588;13.396;2023-07-30T04:21:15;12.85;;;11.55;;
57191;SDS011;43052;52.588;13.396;2023-07-30T04:23:40;9.43;;;8.52;;
57191;SDS011;43052;52.588;13.396;2023-07-30T04:26:06;8.50;;;7.70;;
57191;SDS011;43052;52.588;13.396;2023-07-30T04:28:31;8.80;;;7.90;;
57191;SDS011;43052;52.588;13.396;2023-07-30T04:30:56;10.32;;;8.13;;
57191;SDS011;43052;52.588;13.396;2023-07-30T04:33:22;8.63;;;7.80;;
57191;SDS011;43052;52.588;13.396;2023-07-30T04:35:47;10.93;;;8.63;;
57191;SDS011;43052;52.588;13.396;2023-07-30T04:38:12;9.05;;;8.13;;
57191;SDS011;43052;52.588;13.396;2023-07-30T04:40:38;9.05;;;8.15;;
57191;SDS011;43052;52.588;13.396;2023-07-30T04:43:04;8.60;;;7.80;;
57191;SDS011;43052;52.588;13.396;2023-07-30T04:45:29;8.10;;;7.32;;
57191;SDS011;43052;52.588;13.396;2023-07-30T04:47:54;7.10;;;6.40;;
57191;SDS011;43052;52.588;13.396;2023-07-30T04:50:21;6.97;;;5.68;;
57191;SDS011;43052;52.588;13.396;2023-07-30T04:52:46;6.32;;;5.05;;
57191;SDS011;43052;52.588;13.396;2023-07-30T04:55:11;6.18;;;5.57;;
57191;SDS011;43052;52.588;13.396;2023-07-30T04:57:36;5.57;;;4.97;;
57191;SDS011;43052;52.588;13.396;2023-07-30T05:00:02;4.93;;;4.43;;
57191;SDS011;43052;52.588;13.396;2023-07-30T05:02:27;7.10;;;4.10;;
57191;SDS011;43052;52.588;13.396;2023-07-30T05:04:53;5.07;;;3.92;;
57191;SDS011;43052;52.588;13.396;2023-07-30T05:07:18;4.82;;;4.22;;
57191;SDS011;43052;52.588;13.396;2023-07-30T05:09:43;4.45;;;4.05;;
57191;SDS011;43052;52.588;13.396;2023-07-30T05:12:09;4.72;;;3.92;;
57191;SDS011;43052;52.588;13.396;2023-07-30T05:14:34;5.20;;;3.72;;
57191;SDS011;43052;52.588;13.396;2023-07-30T05:16:59;5.53;;;4.03;;
57191;SDS011;43052;52.588;13.396;2023-07-30T05:19:24;4.00;;;3.50;;
57191;SDS011;43052;52.588;13.396;2023-07-30T05:21:50;4.95;;;3.90;;
57191;SDS011;43052;52.588;13.396;2023-07-30T05:24:15;4.53;;;3.70;;
57191;SDS011;43052;52.588;13.396;2023-07-30T05:26:40;4.90;;;3.67;;
57191;SDS011;43052;52.588;13.396;2023-07-30T05:29:05;4.77;;;3.73;;
57191;SDS011;43052;52.588;13.396;2023-07-30T05:31:31;4.63;;;3.03;;
57191;SDS011;43052;52.588;13.396;2023-07-30T05:33:56;4.47;;;2.90;;
57191;SDS011;43052;52.588;13.396;2023-07-30T05:36:21;3.88;;;3.03;;
57191;SDS011;43052;52.588;13.396;2023-07-30T05:38:47;3.25;;;2.60;;
57191;SDS011;43052;52.588;13.396;2023-07-30T05:41:12;3.67;;;2.80;;
57191;SDS011;43052;52.588;13.396;2023-07-30T05:43:37;3.20;;;2.90;;
57191;SDS011;43052;52.588;13.396;2023-07-30T05:46:02;3.80;;;2.90;;
57191;SDS011;43052;52.588;13.396;2023-07-30T05:48:28;2.90;;;2.60;;
57191;SDS011;43052;52.588;13.396;2023-07-30T05:50:53;4.10;;;3.00;;
57191;SDS011;43052;52.588;13.396;2023-07-30T05:53:18;3.97;;;3.17;;
57191;SDS011;43052;52.588;13.396;2023-07-30T05:55:43;5.60;;;3.28;;
57191;SDS011;43052;52.588;13.396;2023-07-30T05:58:09;3.33;;;3.00;;
57191;SDS011;43052;52.588;13.396;2023-07-30T06:00:34;4.05;;;2.75;;
57191;SDS011;43052;52.588;13.396;2023-07-30T06:02:59;3.65;;;3.10;;
57191;SDS011;43052;52.588;13.396;2023-07-30T06:05:25;5.53;;;3.33;;
57191;SDS011;43052;52.588;13.396;2023-07-30T06:07:50;4.15;;;3.47;;
57191;SDS011;43052;52.588;13.396;2023-07-30T06:10:16;3.72;;;3.08;;
57191;SDS011;43052;52.588;13.396;2023-07-30T06:12:41;4.38;;;3.17;;
57191;SDS011;43052;52.588;13.396;2023-07-30T06:15:06;5.20;;;3.17;;
57191;SDS011;43052;52.588;13.396;2023-07-30T06:17:33;4.13;;;3.47;;
57191;SDS011;43052;52.588;13.396;2023-07-30T06:19:58;3.97;;;3.35;;
57191;SDS011;43052;52.588;13.396;2023-07-30T06:22:24;3.70;;;3.17;;
57191;SDS011;43052;52.588;13.396;2023-07-30T06:24:49;4.63;;;3.17;;
57191;SDS011;43052;52.588;13.396;2023-07-30T06:27:14;3.20;;;2.90;;
57191;SDS011;43052;52.588;13.396;2023-07-30T06:29:39;5.07;;;3.70;;
57191;SDS011;43052;52.588;13.396;2023-07-30T06:32:05;3.77;;;2.80;;
57191;SDS011;43052;52.588;13.396;2023-07-30T06:34:31;4.43;;;2.80;;
57191;SDS011;43052;52.588;13.396;2023-07-30T06:36:56;3.15;;;2.65;;
57191;SDS011;43052;52.588;13.396;2023-07-30T06:39:21;3.30;;;2.77;;
57191;SDS011;43052;52.588;13.396;2023-07-30T06:41:46;3.08;;;2.60;;
57191;SDS011;43052;52.588;13.396;2023-07-30T06:44:12;3.13;;;2.50;;
57191;SDS011;43052;52.588;13.396;2023-07-30T06:46:37;3.60;;;2.70;;
57191;SDS011;43052;52.588;13.396;2023-07-30T06:49:02;3.23;;;2.67;;
57191;SDS011;43052;52.588;13.396;2023-07-30T06:51:27;3.63;;;2.93;;
57191;SDS011;43052;52.588;13.396;2023-07-30T06:53:53;2.55;;;2.35;;
57191;SDS011;43052;52.588;13.396;2023-07-30T06:56:18;3.60;;;2.50;;
57191;SDS011;43052;52.588;13.396;2023-07-30T06:58:44;3.78;;;2.70;;
57191;SDS011;43052;52.588;13.396;2023-07-30T07:01:09;3.38;;;2.50;;
57191;SDS011;43052;52.588;13.396;2023-07-30T07:03:34;2.50;;;2.20;;
57191;SDS011;43052;52.588;13.396;2023-07-30T07:05:59;2.63;;;2.20;;
57191;SDS011;43052;52.588;13.396;2023-07-30T07:08:25;3.47;;;2.13;;
57191;SDS011;43052;52.588;13.396;2023-07-30T07:10:50;2.50;;;2.30;;
57191;SDS011;43052;52.588;13.396;2023-07-30T07:13:15;4.43;;;2.50;;
57191;SDS011;43052;52.588;13.396;2023-07-30T07:15:41;2.75;;;2.30;;
57191;SDS011;43052;52.588;13.396;2023-07-30T07:18:07;2.90;;;2.30;;
57191;SDS011;43052;52.588;13.396;2023-07-30T07:20:32;2.10;;;1.90;;
57191;SDS011;43052;52.588;13.396;2023-07-30T07:22:57;2.85;;;2.38;;
57191;SDS011;43052;52.588;13.396;2023-07-30T07:25:22;3.37;;;2.40;;
57191;SDS011;43052;52.588;13.396;2023-07-30T07:27:48;3.20;;;2.20;;
57191;SDS011;43052;52.588;13.396;2023-07-30T07:30:13;3.00;;;2.20;;
57191;SDS011;43052;52.588;13.396;2023-07-30T07:32:38;3.00;;;2.40;;
57191;SDS011;43052;52.588;13.396;2023-07-30T07:35:04;2.67;;;2.10;;
57191;SDS011;43052;52.588;13.396;2023-07-30T07:37:31;3.55;;;2.33;;
57191;SDS011;43052;52.588;13.396;2023-07-30T07:39:57;2.40;;;2.20;;
57191;SDS011;43052;52.588;13.396;2023-07-30T07:42:22;3.87;;;2.40;;
57191;SDS011;43052;52.588;13.396;2023-07-30T07:44:47;2.67;;;2.47;;
57191;SDS011;43052;52.588;13.396;2023-07-30T07:47:12;2.67;;;2.30;;
57191;SDS011;43052;52.588;13.396;2023-07-30T07:49:38;2.97;;;2.42;;
57191;SDS011;43052;52.588;13.396;2023-07-30T07:52:03;4.60;;;2.50;;
57191;SDS011;43052;52.588;13.396;2023-07-30T07:54:28;3.45;;;2.38;;
57191;SDS011;43052;52.588;13.396;2023-07-30T07:56:54;3.65;;;2.40;;
57191;SDS011;43052;52.588;13.396;2023-07-30T07:59:19;3.50;;;2.53;;
57191;SDS011;43052;52.588;13.396;2023-07-30T08:01:44;3.30;;;2.70;;
57191;SDS011;43052;52.588;13.396;2023-07-30T08:04:09;3.63;;;2.47;;
57191;SDS011;43052;52.588;13.396;2023-07-30T08:06:35;2.50;;;2.30;;
57191;SDS011;43052;52.588;13.396;2023-07-30T08:09:00;2.58;;;2.38;;
57191;SDS011;43052;52.588;13.396;2023-07-30T08:11:25;3.75;;;2.35;;
57191;SDS011;43052;52.588;13.396;2023-07-30T08:13:51;2.65;;;2.20;;
57191;SDS011;43052;52.588;13.396;2023-07-30T08:16:16;4.30;;;2.57;;
57191;SDS011;43052;52.588;13.396;2023-07-30T08:18:41;2.90;;;2.50;;
57191;SDS011;43052;52.588;13.396;2023-07-30T08:21:06;4.60;;;3.00;;
57191;SDS011;43052;52.588;13.396;2023-07-30T08:23:32;4.55;;;2.92;;
57191;SDS011;43052;52.588;13.396;2023-07-30T08:26:00;3.15;;;2.85;;
57191;SDS011;43052;52.588;13.396;2023-07-30T08:28:27;3.80;;;2.95;;
57191;SDS011;43052;52.588;13.396;2023-07-30T08:30:52;3.60;;;2.35;;
57191;SDS011;43052;52.588;13.396;2023-07-30T08:33:37;3.47;;;2.20;;
57191;SDS011;43052;52.588;13.396;2023-07-30T08:36:04;3.35;;;2.80;;
57191;SDS011;43052;52.588;13.396;2023-07-30T08:38:40;2.35;;;2.00;;
57191;SDS011;43052;52.588;13.396;2023-07-30T08:41:06;4.97;;;2.35;;
57191;SDS011;43052;52.588;13.396;2023-07-30T08:43:34;3.17;;;2.20;;
57191;SDS011;43052;52.588;13.396;2023-07-30T08:46:05;5.53;;;2.33;;
57191;SDS011;43052;52.588;13.396;2023-07-30T08:48:32;2.53;;;2.33;;
57191;SDS011;43052;52.588;13.396;2023-07-30T08:50:57;2.85;;;2.13;;
57191;SDS011;43052;52.588;13.396;2023-07-30T08:53:26;3.70;;;2.70;;
57191;SDS011;43052;52.588;13.396;2023-07-30T08:55:53;3.20;;;2.40;;
57191;SDS011;43052;52.588;13.396;2023-07-30T08:58:27;4.10;;;2.55;;
57191;SDS011;43052;52.588;13.396;2023-07-30T09:00:53;2.92;;;1.92;;
57191;SDS011;43052;52.588;13.396;2023-07-30T09:03:20;2.92;;;2.03;;
57191;SDS011;43052;52.588;13.396;2023-07-30T09:05:48;3.85;;;2.05;;
57191;SDS011;43052;52.588;13.396;2023-07-30T09:08:13;3.75;;;2.10;;
57191;SDS011;43052;52.588;13.396;2023-07-30T09:10:39;3.22;;;2.38;;
57191;SDS011;43052;52.588;13.396;2023-07-30T09:13:04;2.60;;;2.20;;
57191;SDS011;43052;52.588;13.396;2023-07-30T09:15:33;3.27;;;2.70;;
57191;SDS011;43052;52.588;13.396;2023-07-30T09:18:02;2.90;;;2.67;;
57191;SDS011;43052;52.588;13.396;2023-07-30T09:20:28;3.75;;;2.30;;
57191;SDS011;43052;52.588;13.396;2023-07-30T09:23:01;4.82;;;2.58;;
57191;SDS011;43052;52.588;13.396;2023-07-30T09:25:26;4.05;;;2.38;;
57191;SDS011;43052;52.588;13.396;2023-07-30T09:27:52;6.07;;;2.53;;
57191;SDS011;43052;52.588;13.396;2023-07-30T09:30:23;2.53;;;1.92;;
57191;SDS011;43052;52.588;13.396;2023-07-30T09:32:52;3.42;;;2.13;;
57191;SDS011;43052;52.588;13.396;2023-07-30T09:35:19;4.80;;;2.20;;
57191;SDS011;43052;52.588;13.396;2023-07-30T09:37:45;3.88;;;2.65;;
57191;SDS011;43052;52.588;13.396;2023-07-30T09:40:11;4.47;;;2.50;;
57191;SDS011;43052;52.588;13.396;2023-07-30T09:42:38;3.75;;;2.38;;
57191;SDS011;43052;52.588;13.396;2023-07-30T09:45:08;4.13;;;2.55;;
57191;SDS011;43052;52.588;13.396;2023-07-30T09:47:41;3.92;;;2.13;;
57191;SDS011;43052;52.588;13.396;2023-07-30T09:50:11;4.55;;;2.35;;
57191;SDS011;43052;52.588;13.396;2023-07-30T09:52:36;2.20;;;2.00;;
57191;SDS011;43052;52.588;13.396;2023-07-30T09:55:01;2.90;;;2.20;;
57191;SDS011;43052;52.588;13.396;2023-07-30T09:57:28;4.53;;;2.40;;
57191;SDS011;43052;52.588;13.396;2023-07-30T09:59:53;3.30;;;2.10;;
57191;SDS011;43052;52.588;13.396;2023-07-30T10:02:18;4.57;;;2.40;;
57191;SDS011;43052;52.588;13.396;2023-07-30T10:04:45;4.25;;;2.10;;
57191;SDS011;43052;52.588;13.396;2023-07-30T10:07:18;4.25;;;2.10;;
57191;SDS011;43052;52.588;13.396;2023-07-30T10:09:45;4.10;;;2.28;;
57191;SDS011;43052;52.588;13.396;2023-07-30T10:12:13;4.65;;;2.80;;
57191;SDS011;43052;52.588;13.396;2023-07-30T10:14:42;4.50;;;2.95;;
57191;SDS011;43052;52.588;13.396;2023-07-30T10:17:09;4.03;;;2.50;;
57191;SDS011;43052;52.588;13.396;2023-07-30T10:19:35;3.35;;;2.40;;
57191;SDS011;43052;52.588;13.396;2023-07-30T10:24:35;4.40;;;2.50;;
57191;SDS011;43052;52.588;13.396;2023-07-30T10:27:09;3.00;;;2.35;;
57191;SDS011;43052;52.588;13.396;2023-07-30T10:29:35;3.35;;;2.40;;
57191;SDS011;43052;52.588;13.396;2023-07-30T10:32:01;3.97;;;2.08;;
57191;SDS011;43052;52.588;13.396;2023-07-30T10:34:42;3.67;;;2.10;;
57191;SDS011;43052;52.588;13.396;2023-07-30T10:37:09;3.70;;;2.30;;
57191;SDS011;43052;52.588;13.396;2023-07-30T10:39:35;3.70;;;2.23;;
57191;SDS011;43052;52.588;13.396;2023-07-30T10:42:00;2.80;;;2.33;;
57191;SDS011;43052;52.588;13.396;2023-07-30T10:44:31;4.30;;;2.45;;
57191;SDS011;43052;52.588;13.396;2023-07-30T10:46:58;4.28;;;2.47;;
57191;SDS011;43052;52.588;13.396;2023-07-30T10:49:24;4.85;;;2.08;;
57191;SDS011;43052;52.588;13.396;2023-07-30T10:51:56;5.97;;;2.53;;
57191;SDS011;43052;52.588;13.396;2023-07-30T10:54:22;4.40;;;2.22;;
57191;SDS011;43052;52.588;13.396;2023-07-30T10:56:48;4.60;;;2.58;;
57191;SDS011;43052;52.588;13.396;2023-07-30T10:59:14;3.83;;;2.45;;
57191;SDS011;43052;52.588;13.396;2023-07-30T11:01:41;2.97;;;2.33;;
57191;SDS011;43052;52.588;13.396;2023-07-30T11:04:17;3.72;;;2.47;;
57191;SDS011;43052;52.588;13.396;2023-07-30T11:06:47;3.05;;;2.00;;
57191;SDS011;43052;52.588;13.396;2023-07-30T11:09:21;4.60;;;2.10;;
57191;SDS011;43052;52.588;13.396;2023-07-30T11:11:50;3.17;;;2.30;;
57191;SDS011;43052;52.588;13.396;2023-07-30T11:14:21;3.83;;;2.55;;
57191;SDS011;43052;52.588;13.396;2023-07-30T11:16:58;5.35;;;2.40;;
57191;SDS011;43052;52.588;13.396;2023-07-30T11:19:24;4.75;;;2.42;;
57191;SDS011;43052;52.588;13.396;2023-07-30T11:21:51;4.60;;;2.80;;
57191;SDS011;43052;52.588;13.396;2023-07-30T11:24:17;6.63;;;2.60;;
57191;SDS011;43052;52.588;13.396;2023-07-30T11:26:43;4.55;;;2.20;;
57191;SDS011;43052;52.588;13.396;2023-07-30T11:31:44;4.40;;;2.33;;
57191;SDS011;43052;52.588;13.396;2023-07-30T11:34:10;5.22;;;2.28;;
57191;SDS011;43052;52.588;13.396;2023-07-30T11:36:37;4.25;;;2.35;;
57191;SDS011;43052;52.588;13.396;2023-07-30T11:39:03;5.05;;;2.38;;
57191;SDS011;43052;52.588;13.396;2023-07-30T11:41:29;3.75;;;2.20;;
57191;SDS011;43052;52.588;13.396;2023-07-30T11:43:55;5.63;;;2.38;;
57191;SDS011;43052;52.588;13.396;2023-07-30T11:46:20;3.95;;;2.28;;
57191;SDS011;43052;52.588;13.396;2023-07-30T11:48:51;5.03;;;2.45;;
57191;SDS011;43052;52.588;13.396;2023-07-30T11:51:22;7.10;;;2.83;;
57191;SDS011;43052;52.588;13.396;2023-07-30T11:53:53;4.03;;;2.20;;
57191;SDS011;43052;52.588;13.396;2023-07-30T11:56:21;3.25;;;2.10;;
57191;SDS011;43052;52.588;13.396;2023-07-30T11:58:48;3.42;;;1.80;;
57191;SDS011;43052;52.588;13.396;2023-07-30T12:01:14;4.82;;;2.58;;
57191;SDS011;43052;52.588;13.396;2023-07-30T12:03:40;5.70;;;2.50;;
57191;SDS011;43052;52.588;13.396;2023-07-30T12:06:06;3.72;;;1.98;;
57191;SDS011;43052;52.588;13.396;2023-07-30T12:08:33;3.15;;;1.92;;
57191;SDS011;43052;52.588;13.396;2023-07-30T12:11:07;4.43;;;1.98;;
57191;SDS011;43052;52.588;13.396;2023-07-30T12:13:33;4.40;;;1.95;;
57191;SDS011;43052;52.588;13.396;2023-07-30T12:15:59;4.03;;;1.83;;
57191;SDS011;43052;52.588;13.396;2023-07-30T12:18:25;6.00;;;2.22;;
57191;SDS011;43052;52.588;13.396;2023-07-30T12:20:51;3.08;;;2.05;;
57191;SDS011;43052;52.588;13.396;2023-07-30T12:23:18;3.97;;;2.20;;
57191;SDS011;43052;52.588;13.396;2023-07-30T12:25:45;4.38;;;2.22;;
57191;SDS011;43052;52.588;13.396;2023-07-30T12:28:11;3.58;;;1.90;;
57191;SDS011;43052;52.588;13.396;2023-07-30T12:30:36;3.78;;;1.80;;
57191;SDS011;43052;52.588;13.396;2023-07-30T12:33:05;4.82;;;2.63;;
57191;SDS011;43052;52.588;13.396;2023-07-30T12:35:31;4.40;;;2.00;;
57191;SDS011;43052;52.588;13.396;2023-07-30T12:37:57;3.28;;;2.00;;
57191;SDS011;43052;52.588;13.396;2023-07-30T12:40:23;3.42;;;2.00;;
57191;SDS011;43052;52.588;13.396;2023-07-30T12:42:48;3.75;;;2.25;;
57191;SDS011;43052;52.588;13.396;2023-07-30T12:45:13;4.17;;;2.20;;
57191;SDS011;43052;52.588;13.396;2023-07-30T12:47:39;4.32;;;2.40;;
57191;SDS011;43052;52.588;13.396;2023-07-30T12:50:05;3.67;;;2.20;;
57191;SDS011;43052;52.588;13.396;2023-07-30T12:52:32;4.50;;;2.40;;
57191;SDS011;43052;52.588;13.396;2023-07-30T12:54:58;6.65;;;2.58;;
57191;SDS011;43052;52.588;13.396;2023-07-30T12:57:23;4.47;;;2.30;;
57191;SDS011;43052;52.588;13.396;2023-07-30T12:59:48;3.60;;;2.47;;
57191;SDS011;43052;52.588;13.396;2023-07-30T13:02:13;5.15;;;2.70;;
57191;SDS011;43052;52.588;13.396;2023-07-30T13:04:39;5.80;;;2.83;;
57191;SDS011;43052;52.588;13.396;2023-07-30T13:07:04;4.75;;;2.50;;
57191;SDS011;43052;52.588;13.396;2023-07-30T13:09:30;4.82;;;2.50;;
57191;SDS011;43052;52.588;13.396;2023-07-30T13:11:55;4.18;;;2.78;;
57191;SDS011;43052;52.588;13.396;2023-07-30T13:14:20;5.03;;;2.70;;
57191;SDS011;43052;52.588;13.396;2023-07-30T13:16:46;5.87;;;2.87;;
57191;SDS011;43052;52.588;13.396;2023-07-30T13:19:11;5.10;;;2.70;;
57191;SDS011;43052;52.588;13.396;2023-07-30T13:21:37;5.97;;;2.43;;
57191;SDS011;43052;52.588;13.396;2023-07-30T13:24:02;5.47;;;2.83;;
57191;SDS011;43052;52.588;13.396;2023-07-30T13:26:27;4.32;;;2.90;;
57191;SDS011;43052;52.588;13.396;2023-07-30T13:28:53;4.25;;;2.78;;
57191;SDS011;43052;52.588;13.396;2023-07-30T13:31:18;3.93;;;2.50;;
57191;SDS011;43052;52.588;13.396;2023-07-30T13:33:47;4.53;;;2.67;;
57191;SDS011;43052;52.588;13.396;2023-07-30T13:36:13;4.80;;;2.63;;
57191;SDS011;43052;52.588;13.396;2023-07-30T13:38:38;3.60;;;2.38;;
57191;SDS011;43052;52.588;13.396;2023-07-30T13:41:04;5.68;;;3.10;;
57191;SDS011;43052;52.588;13.396;2023-07-30T13:43:30;5.25;;;2.90;;
57191;SDS011;43052;52.588;13.396;2023-07-30T13:45:56;4.85;;;2.78;;
57191;SDS011;43052;52.588;13.396;2023-07-30T13:48:22;4.30;;;2.60;;
57191;SDS011;43052;52.588;13.396;2023-07-30T13:50:47;4.45;;;2.88;;
57191;SDS011;43052;52.588;13.396;2023-07-30T13:53:13;4.75;;;2.60;;
57191;SDS011;43052;52.588;13.396;2023-07-30T13:55:38;4.30;;;2.55;;
57191;SDS011;43052;52.588;13.396;2023-07-30T13:58:03;4.03;;;2.47;;
57191;SDS011;43052;52.588;13.396;2023-07-30T14:00:29;3.40;;;2.20;;
57191;SDS011;43052;52.588;13.396;2023-07-30T14:02:54;4.43;;;2.60;;
57191;SDS011;43052;52.588;13.396;2023-07-30T14:05:19;4.40;;;2.20;;
57191;SDS011;43052;52.588;13.396;2023-07-30T14:07:44;4.35;;;2.30;;
57191;SDS011;43052;52.588;13.396;2023-07-30T14:10:10;4.25;;;2.33;;
57191;SDS011;43052;52.588;13.396;2023-07-30T14:12:36;4.32;;;2.42;;
57191;SDS011;43052;52.588;13.396;2023-07-30T14:15:01;3.17;;;2.05;;
57191;SDS011;43052;52.588;13.396;2023-07-30T14:17:26;3.47;;;1.88;;
57191;SDS011;43052;52.588;13.396;2023-07-30T14:19:52;3.47;;;1.80;;
57191;SDS011;43052;52.588;13.396;2023-07-30T14:22:17;3.35;;;1.70;;
57191;SDS011;43052;52.588;13.396;2023-07-30T14:24:42;2.53;;;1.70;;